createdAt,value
2023-05-06T00:01:19.512Z,12.17
2023-05-06T00:03:46.436Z,12.24
2023-05-06T00:06:15.621Z,12.26
2023-05-06T00:08:42.258Z,12.17
2023-05-06T00:11:08.777Z,12.19
2023-05-06T00:13:35.255Z,12.16
2023-05-06T00:16:01.654Z,12.20
2023-05-06T00:18:28.438Z,12.14
2023-05-06T00:20:57.240Z,12.13
2023-05-06T00:23:26.785Z,12.10
2023-05-06T00:25:55.867Z,12.14
2023-05-06T00:28:22.227Z,12.12
2023-05-06T00:30:48.636Z,12.11
2023-05-06T00:33:15.149Z,12.12
2023-05-06T00:35:41.550Z,12.08
2023-05-06T00:38:10.873Z,12.12
2023-05-06T00:40:37.809Z,12.18
2023-05-06T00:43:04.406Z,12.16
2023-05-06T00:45:31.534Z,12.11
2023-05-06T00:47:58.784Z,12.09
2023-05-06T00:50:28.048Z,12.12
2023-05-06T00:52:54.658Z,12.15
2023-05-06T00:55:22.221Z,12.16
2023-05-06T00:57:51.867Z,12.26
2023-05-06T01:00:25.041Z,12.28
2023-05-06T01:02:52.526Z,12.24
2023-05-06T01:05:22.157Z,12.23
2023-05-06T01:08:00.525Z,12.23
2023-05-06T01:10:41.938Z,12.18
2023-05-06T01:13:15.380Z,12.15
2023-05-06T01:15:46.947Z,12.10
2023-05-06T01:18:17.863Z,12.01
2023-05-06T01:20:49.766Z,12.02
2023-05-06T01:23:17.130Z,12.17
2023-05-06T01:25:43.691Z,12.24
2023-05-06T01:28:11.984Z,12.18
2023-05-06T01:30:46.196Z,12.23
2023-05-06T01:33:33.321Z,12.18
2023-05-06T01:36:05.220Z,12.03
2023-05-06T01:38:50.591Z,11.90
2023-05-06T01:41:18.720Z,11.84
2023-05-06T01:43:47.391Z,11.79
2023-05-06T01:46:17.843Z,11.73
2023-05-06T01:48:46.381Z,11.68
2023-05-06T01:51:12.879Z,11.60
2023-05-06T01:53:39.200Z,11.60
2023-05-06T01:56:05.914Z,11.79
2023-05-06T01:58:32.462Z,11.63
2023-05-06T02:00:58.844Z,11.57
2023-05-06T02:03:25.685Z,11.53
2023-05-06T02:05:52.173Z,11.46
2023-05-06T02:08:18.607Z,11.44
2023-05-06T02:10:45.322Z,11.43
2023-05-06T02:13:12.162Z,11.38
2023-05-06T02:15:41.623Z,11.33
2023-05-06T02:18:08.474Z,11.29
2023-05-06T02:20:34.878Z,11.30
2023-05-06T02:23:01.252Z,11.30
2023-05-06T02:25:27.797Z,11.28
2023-05-06T02:27:58.844Z,11.24
2023-05-06T02:30:25.251Z,11.25
2023-05-06T02:32:54.793Z,11.20
2023-05-06T02:35:21.312Z,11.17
2023-05-06T02:37:47.667Z,11.21
2023-05-06T02:40:14.204Z,11.17
2023-05-06T02:42:40.651Z,11.15
2023-05-06T02:45:08.024Z,11.09
2023-05-06T02:47:34.775Z,11.04
2023-05-06T02:50:01.228Z,10.98
2023-05-06T02:52:27.715Z,10.95
2023-05-06T02:54:54.083Z,10.89
2023-05-06T02:57:20.455Z,10.86
2023-05-06T02:59:46.944Z,10.85
2023-05-06T03:02:13.382Z,10.81
2023-05-06T03:04:39.883Z,10.75
2023-05-06T03:07:06.488Z,10.70
2023-05-06T03:09:35.679Z,10.67
2023-05-06T03:12:02.211Z,10.66
2023-05-06T03:14:28.578Z,10.63
2023-05-06T03:16:57.759Z,10.67
2023-05-06T03:19:26.898Z,10.63
2023-05-06T03:21:53.448Z,10.56
2023-05-06T03:24:20.291Z,10.62
2023-05-06T03:26:51.683Z,10.88
2023-05-06T03:29:18.052Z,10.76
2023-05-06T03:31:44.484Z,10.63
2023-05-06T03:34:13.273Z,10.60
2023-05-06T03:36:39.616Z,10.73
2023-05-06T03:39:05.996Z,10.71
2023-05-06T03:41:32.361Z,10.61
2023-05-06T03:43:58.874Z,10.56
2023-05-06T03:46:25.267Z,10.53
2023-05-06T03:48:54.051Z,10.55
2023-05-06T03:51:20.526Z,10.48
2023-05-06T03:53:47.003Z,10.48
2023-05-06T03:56:13.545Z,10.40
2023-05-06T03:58:40.060Z,10.37
2023-05-06T04:01:06.543Z,10.36
2023-05-06T04:03:32.966Z,10.34
2023-05-06T04:05:59.383Z,10.34
2023-05-06T04:08:28.370Z,10.31
2023-05-06T04:10:55.242Z,10.34
2023-05-06T04:13:21.695Z,10.34
2023-05-06T04:15:49.028Z,10.33
2023-05-06T04:18:19.193Z,10.29
2023-05-06T04:20:48.022Z,10.31
2023-05-06T04:23:15.298Z,10.32
2023-05-06T04:25:42.733Z,10.38
2023-05-06T04:28:11.219Z,10.39
2023-05-06T04:30:37.868Z,10.39
2023-05-06T04:33:04.415Z,10.44
2023-05-06T04:35:31.106Z,10.43
2023-05-06T04:37:57.534Z,10.47
2023-05-06T04:40:26.218Z,10.42
2023-05-06T04:42:52.772Z,10.50
2023-05-06T04:45:19.566Z,10.55
2023-05-06T04:47:46.297Z,10.61
2023-05-06T04:50:12.969Z,10.68
2023-05-06T04:52:41.997Z,10.75
2023-05-06T04:55:09.118Z,10.78
2023-05-06T04:57:35.794Z,10.82
2023-05-06T05:00:02.315Z,10.89
2023-05-06T05:02:31.350Z,11.07
2023-05-06T05:04:57.895Z,11.20
2023-05-06T05:07:24.398Z,11.45
2023-05-06T05:09:50.757Z,11.64
2023-05-06T05:12:17.136Z,11.80
2023-05-06T05:14:47.271Z,11.95
2023-05-06T05:17:13.755Z,12.11
2023-05-06T05:19:40.954Z,12.22
2023-05-06T05:22:07.309Z,12.29
2023-05-06T05:24:33.860Z,12.43
2023-05-06T05:27:00.233Z,12.54
2023-05-06T05:29:26.576Z,12.60
2023-05-06T05:31:53.005Z,12.68
2023-05-06T05:34:19.444Z,12.79
2023-05-06T05:36:45.957Z,12.88
2023-05-06T05:39:12.312Z,13.00
2023-05-06T05:41:38.663Z,13.18
2023-05-06T05:44:05.025Z,13.17
2023-05-06T05:46:31.594Z,13.30
2023-05-06T05:48:58.143Z,13.38
2023-05-06T05:51:25.820Z,13.43
2023-05-06T05:53:54.622Z,13.60
2023-05-06T05:56:21.183Z,13.65
2023-05-06T05:58:47.873Z,13.61
2023-05-06T06:01:14.631Z,13.69
2023-05-06T06:03:42.111Z,13.96
2023-05-06T06:06:09.463Z,14.02
2023-05-06T06:08:36.068Z,14.07
2023-05-06T06:11:04.356Z,14.09
2023-05-06T06:13:31.287Z,14.41
2023-05-06T06:15:58.068Z,14.42
2023-05-06T06:18:24.691Z,14.25
2023-05-06T06:20:53.881Z,14.43
2023-05-06T06:23:20.953Z,14.81
2023-05-06T06:25:47.463Z,14.93
2023-05-06T06:28:13.952Z,15.13
2023-05-06T06:30:44.015Z,15.16
2023-05-06T06:33:10.471Z,15.27
2023-05-06T06:35:36.889Z,15.32
2023-05-06T06:38:03.250Z,15.37
2023-05-06T06:40:29.759Z,15.39
2023-05-06T06:42:59.242Z,15.33
2023-05-06T06:45:28.375Z,15.77
2023-05-06T06:47:57.262Z,15.68
2023-05-06T06:50:28.359Z,15.39
2023-05-06T06:52:57.005Z,15.61
2023-05-06T06:55:25.970Z,15.86
2023-05-06T06:57:52.356Z,15.82
2023-05-06T07:00:19.130Z,15.90
2023-05-06T07:02:48.555Z,15.78
2023-05-06T07:05:18.251Z,15.90
2023-05-06T07:07:44.594Z,15.82
2023-05-06T07:10:11.160Z,15.97
2023-05-06T07:12:37.886Z,16.30
2023-05-06T07:15:06.842Z,16.76
2023-05-06T07:17:33.659Z,16.56
2023-05-06T07:20:02.300Z,16.82
2023-05-06T07:22:29.534Z,16.89
2023-05-06T07:24:55.912Z,16.80
2023-05-06T07:27:22.778Z,16.77
2023-05-06T07:29:49.253Z,16.86
2023-05-06T07:32:15.928Z,16.93
2023-05-06T07:34:44.739Z,17.36
2023-05-06T07:37:13.988Z,17.38
2023-05-06T07:39:43.596Z,17.59
2023-05-06T07:42:13.117Z,17.82
2023-05-06T07:44:42.096Z,18.03
2023-05-06T07:47:10.927Z,18.22
2023-05-06T07:49:37.428Z,18.16
2023-05-06T07:52:04.115Z,17.86
2023-05-06T07:54:31.803Z,18.04
2023-05-06T07:56:58.356Z,18.05
2023-05-06T07:59:24.812Z,17.81
2023-05-06T08:01:53.840Z,17.69
2023-05-06T08:04:20.495Z,17.70
2023-05-06T08:06:52.094Z,17.54
2023-05-06T08:09:23.069Z,17.63
2023-05-06T08:11:50.642Z,18.13
2023-05-06T08:14:17.034Z,18.43
2023-05-06T08:16:43.546Z,18.18
2023-05-06T08:19:10.275Z,17.99
2023-05-06T08:21:36.696Z,18.26
2023-05-06T08:24:03.464Z,18.17
2023-05-06T08:26:30.003Z,18.07
2023-05-06T08:28:59.600Z,18.26
2023-05-06T08:31:26.020Z,18.10
2023-05-06T08:33:54.781Z,18.61
2023-05-06T08:36:22.231Z,18.67
2023-05-06T08:38:51.245Z,18.89
2023-05-06T08:41:19.751Z,19.31
2023-05-06T08:43:48.001Z,19.42
2023-05-06T08:46:14.855Z,19.18
2023-05-06T08:48:41.730Z,19.46
2023-05-06T08:51:08.839Z,19.61
2023-05-06T08:53:35.728Z,19.62
2023-05-06T08:56:04.427Z,19.80
2023-05-06T08:58:35.033Z,20.08
2023-05-06T09:01:03.332Z,20.21
2023-05-06T09:03:32.750Z,19.73
2023-05-06T09:05:59.302Z,19.95
2023-05-06T09:08:25.968Z,20.54
2023-05-06T09:10:52.754Z,20.39
2023-05-06T09:13:19.601Z,20.44
2023-05-06T09:15:47.801Z,20.67
2023-05-06T09:18:16.945Z,20.88
2023-05-06T09:20:48.549Z,20.00
2023-05-06T09:23:18.752Z,19.94
2023-05-06T09:25:46.914Z,20.42
2023-05-06T09:28:14.534Z,20.51
2023-05-06T09:30:43.266Z,20.33
2023-05-06T09:33:10.793Z,20.36
2023-05-06T09:35:41.120Z,20.27
2023-05-06T09:38:08.794Z,20.57
2023-05-06T09:40:38.983Z,20.47
2023-05-06T09:43:06.098Z,20.58
2023-05-06T09:45:33.001Z,20.99
2023-05-06T09:47:59.607Z,20.49
2023-05-06T09:50:26.689Z,20.79
2023-05-06T09:52:54.902Z,20.99
2023-05-06T09:55:23.157Z,20.83
2023-05-06T09:57:50.299Z,20.70
2023-05-06T10:00:27.913Z,20.54
2023-05-06T10:02:54.629Z,20.66
2023-05-06T10:05:22.800Z,20.83
2023-05-06T10:07:53.377Z,21.08
2023-05-06T10:10:20.549Z,20.79
2023-05-06T10:12:48.703Z,21.45
2023-05-06T10:15:15.231Z,21.58
2023-05-06T10:17:48.246Z,21.99
2023-05-06T10:20:16.406Z,21.86
2023-05-06T10:22:52.015Z,21.45
2023-05-06T10:25:28.500Z,21.19
2023-05-06T10:27:54.918Z,21.51
2023-05-06T10:30:23.131Z,21.58
2023-05-06T10:32:55.823Z,21.68
2023-05-06T10:35:36.271Z,22.02
2023-05-06T10:38:05.292Z,21.68
2023-05-06T10:40:34.575Z,22.01
2023-05-06T10:43:23.690Z,21.38
2023-05-06T10:45:59.783Z,21.82
2023-05-06T10:48:26.920Z,21.90
2023-05-06T10:51:19.873Z,22.11
2023-05-06T10:54:09.341Z,21.60
2023-05-06T10:56:38.207Z,21.95
2023-05-06T10:59:10.038Z,21.88
2023-05-06T11:01:43.859Z,21.87
2023-05-06T11:04:18.501Z,22.10
2023-05-06T11:06:46.743Z,22.37
2023-05-06T11:09:26.710Z,22.79
2023-05-06T11:12:03.176Z,23.05
2023-05-06T11:14:37.610Z,22.59
2023-05-06T11:17:28.139Z,22.89
2023-05-06T11:20:23.269Z,22.72
2023-05-06T11:22:50.227Z,22.75
2023-05-06T11:25:40.087Z,22.18
2023-05-06T11:28:17.050Z,21.96
2023-05-06T11:30:56.029Z,22.20
2023-05-06T11:33:26.090Z,22.08
2023-05-06T11:35:53.137Z,21.76
2023-05-06T11:38:19.546Z,22.17
2023-05-06T11:40:46.108Z,22.28
2023-05-06T11:43:16.970Z,21.90
2023-05-06T11:45:47.555Z,22.16
2023-05-06T11:48:15.410Z,22.23
2023-05-06T11:50:47.172Z,21.90
2023-05-06T11:53:19.039Z,22.44
2023-05-06T11:55:46.537Z,22.28
2023-05-06T11:58:24.446Z,22.06
2023-05-06T12:00:54.521Z,22.35
2023-05-06T12:03:22.173Z,22.52
2023-05-06T12:05:50.842Z,22.27
2023-05-06T12:08:27.479Z,22.02
2023-05-06T12:10:59.818Z,22.09
2023-05-06T12:13:30.069Z,22.08
2023-05-06T12:15:59.635Z,21.83
2023-05-06T12:18:30.056Z,21.75
2023-05-06T12:20:57.542Z,21.76
2023-05-06T12:23:24.038Z,21.73
2023-05-06T12:26:05.005Z,22.11
2023-05-06T12:28:33.042Z,22.24
2023-05-06T12:31:17.535Z,22.51
2023-05-06T12:33:45.384Z,22.38
2023-05-06T12:36:11.868Z,22.78
2023-05-06T12:38:38.414Z,22.54
2023-05-06T12:41:06.920Z,22.37
2023-05-06T12:43:33.397Z,22.29
2023-05-06T12:46:07.966Z,22.42
2023-05-06T12:48:34.778Z,22.26
2023-05-06T12:51:01.250Z,22.71
2023-05-06T12:53:32.922Z,22.89
2023-05-06T12:56:01.804Z,23.07
2023-05-06T12:58:30.701Z,23.15
2023-05-06T13:00:59.557Z,23.01
2023-05-06T13:03:26.764Z,22.81
2023-05-06T13:05:53.242Z,22.93
2023-05-06T13:08:20.153Z,22.88
2023-05-06T13:10:48.980Z,22.86
2023-05-06T13:13:16.569Z,22.75
2023-05-06T13:15:43.431Z,22.66
2023-05-06T13:18:09.877Z,22.65
2023-05-06T13:20:36.700Z,22.59
2023-05-06T13:23:03.811Z,22.65
2023-05-06T13:25:32.905Z,22.83
2023-05-06T13:28:02.109Z,22.94
2023-05-06T13:30:34.722Z,22.92
2023-05-06T13:33:01.259Z,22.52
2023-05-06T13:35:27.659Z,22.53
2023-05-06T13:37:54.096Z,22.92
2023-05-06T13:40:22.946Z,23.04
2023-05-06T13:42:49.287Z,23.15
2023-05-06T13:45:15.681Z,23.12
2023-05-06T13:47:42.955Z,23.04
2023-05-06T13:50:12.266Z,22.30
2023-05-06T13:52:39.028Z,22.84
2023-05-06T13:55:05.920Z,22.82
2023-05-06T13:57:32.297Z,23.13
2023-05-06T13:59:58.738Z,23.27
2023-05-06T14:02:26.445Z,23.42
2023-05-06T14:04:52.966Z,23.48
2023-05-06T14:07:19.603Z,22.74
2023-05-06T14:09:46.077Z,22.90
2023-05-06T14:12:12.425Z,22.82
2023-05-06T14:14:44.499Z,23.03
2023-05-06T14:17:11.219Z,22.91
2023-05-06T14:19:37.699Z,23.02
2023-05-06T14:22:06.526Z,22.98
2023-05-06T14:24:35.243Z,23.06
2023-05-06T14:27:04.132Z,22.68
2023-05-06T14:29:31.031Z,22.84
2023-05-06T14:31:59.688Z,22.78
2023-05-06T14:34:26.996Z,22.51
2023-05-06T14:36:56.011Z,22.35
2023-05-06T14:39:22.523Z,22.39
2023-05-06T14:41:48.948Z,22.34
2023-05-06T14:44:15.663Z,22.18
2023-05-06T14:46:42.212Z,22.27
2023-05-06T14:49:08.641Z,22.31
2023-05-06T14:51:35.140Z,22.19
2023-05-06T14:54:01.749Z,21.87
2023-05-06T14:56:30.711Z,21.90
2023-05-06T14:59:01.189Z,21.78
2023-05-06T15:01:32.214Z,21.80
2023-05-06T15:03:58.755Z,21.81
2023-05-06T15:06:25.757Z,21.78
2023-05-06T15:08:52.533Z,21.55
2023-05-06T15:11:21.551Z,21.59
2023-05-06T15:13:48.121Z,21.48
2023-05-06T15:16:14.783Z,21.44
2023-05-06T15:18:42.054Z,21.29
2023-05-06T15:21:08.612Z,21.29
2023-05-06T15:23:35.224Z,21.32
2023-05-06T15:26:03.393Z,21.43
2023-05-06T15:28:29.881Z,21.26
2023-05-06T15:30:56.283Z,21.32
2023-05-06T15:33:22.737Z,21.32
2023-05-06T15:35:49.288Z,21.24
2023-05-06T15:38:15.652Z,21.23
2023-05-06T15:40:50.226Z,21.31
2023-05-06T15:43:22.901Z,21.17
2023-05-06T15:45:49.937Z,21.17
2023-05-06T15:48:16.434Z,21.20
2023-05-06T15:50:48.042Z,21.21
2023-05-06T15:53:14.436Z,21.30
2023-05-06T15:55:44.492Z,21.18
2023-05-06T15:58:13.189Z,21.28
2023-05-06T16:00:39.706Z,21.28
2023-05-06T16:03:12.435Z,21.26
2023-05-06T16:05:39.660Z,21.28
2023-05-06T16:08:06.175Z,21.30
2023-05-06T16:10:35.632Z,21.26
2023-05-06T16:13:02.105Z,21.19
2023-05-06T16:15:31.653Z,21.19
2023-05-06T16:18:00.482Z,21.15
2023-05-06T16:20:31.491Z,21.06
2023-05-06T16:22:58.287Z,21.04
2023-05-06T16:25:27.353Z,21.04
2023-05-06T16:27:53.861Z,21.02
2023-05-06T16:30:20.495Z,21.03
2023-05-06T16:32:49.592Z,20.98
2023-05-06T16:35:20.297Z,21.01
2023-05-06T16:37:49.210Z,21.01
2023-05-06T16:40:20.634Z,21.03
2023-05-06T16:42:50.068Z,21.05
2023-05-06T16:45:16.816Z,21.03
2023-05-06T16:47:44.268Z,21.01
2023-05-06T16:50:12.133Z,20.96
2023-05-06T16:52:38.818Z,20.96
2023-05-06T16:55:06.382Z,20.92
2023-05-06T16:57:32.916Z,20.91
2023-05-06T17:00:01.803Z,20.90
2023-05-06T17:02:28.368Z,20.91
2023-05-06T17:04:57.439Z,20.85
2023-05-06T17:07:23.778Z,20.87
2023-05-06T17:09:50.619Z,20.84
2023-05-06T17:12:17.102Z,20.84
2023-05-06T17:14:43.982Z,20.79
2023-05-06T17:17:13.526Z,20.77
2023-05-06T17:19:39.999Z,20.76
2023-05-06T17:22:08.602Z,20.76
2023-05-06T17:24:37.240Z,20.70
2023-05-06T17:27:03.859Z,20.67
2023-05-06T17:29:30.266Z,20.56
2023-05-06T17:31:56.654Z,20.53
2023-05-06T17:34:23.083Z,20.47
2023-05-06T17:36:49.599Z,20.48
2023-05-06T17:39:19.218Z,20.51
2023-05-06T17:41:45.644Z,20.47
2023-05-06T17:44:18.172Z,20.37
2023-05-06T17:46:47.740Z,20.30
2023-05-06T17:49:14.291Z,20.24
2023-05-06T17:51:45.523Z,20.20
2023-05-06T17:54:12.326Z,20.15
2023-05-06T17:56:38.669Z,20.17
2023-05-06T17:59:05.484Z,20.07
2023-05-06T18:01:32.034Z,20.04
2023-05-06T18:03:58.742Z,20.04
2023-05-06T18:06:25.296Z,20.03
2023-05-06T18:08:51.649Z,19.95
2023-05-06T18:11:18.157Z,19.95
2023-05-06T18:13:44.581Z,19.87
2023-05-06T18:16:13.678Z,19.79
2023-05-06T18:18:42.888Z,19.77
2023-05-06T18:21:09.423Z,19.68
2023-05-06T18:23:35.853Z,19.59
2023-05-06T18:26:05.312Z,19.53
2023-05-06T18:28:31.950Z,19.40
2023-05-06T18:30:58.559Z,19.41
2023-05-06T18:33:24.942Z,19.26
2023-05-06T18:35:51.448Z,19.24
2023-05-06T18:38:18.183Z,19.16
2023-05-06T18:40:47.346Z,19.07
2023-05-06T18:43:13.693Z,18.96
2023-05-06T18:45:43.492Z,18.89
2023-05-06T18:48:10.866Z,18.80
2023-05-06T18:50:37.356Z,18.72
2023-05-06T18:53:06.062Z,18.61
2023-05-06T18:55:32.403Z,18.50
2023-05-06T18:57:58.867Z,18.42
2023-05-06T19:00:27.480Z,18.28
2023-05-06T19:02:56.306Z,18.18
2023-05-06T19:05:22.819Z,18.15
2023-05-06T19:07:49.327Z,18.07
2023-05-06T19:10:15.946Z,18.02
2023-05-06T19:12:45.476Z,17.98
2023-05-06T19:15:13.898Z,17.88
2023-05-06T19:17:40.302Z,17.78
2023-05-06T19:20:09.537Z,17.77
2023-05-06T19:22:40.952Z,17.65
2023-05-06T19:25:11.002Z,17.60
2023-05-06T19:27:37.632Z,17.45
2023-05-06T19:30:05.081Z,17.33
2023-05-06T19:32:34.230Z,17.22
2023-05-06T19:35:07.906Z,17.18
2023-05-06T19:37:35.393Z,17.19
2023-05-06T19:40:06.437Z,17.09
2023-05-06T19:42:33.830Z,16.99
2023-05-06T19:45:06.785Z,16.93
2023-05-06T19:47:33.145Z,16.86
2023-05-06T19:49:59.687Z,16.81
2023-05-06T19:52:30.530Z,16.76
2023-05-06T19:54:57.449Z,16.69
2023-05-06T19:57:24.001Z,16.67
2023-05-06T19:59:50.546Z,16.62
2023-05-06T20:02:16.899Z,16.63
2023-05-06T20:04:44.940Z,16.62
2023-05-06T20:07:13.015Z,16.60
2023-05-06T20:09:39.606Z,16.57
2023-05-06T20:12:11.690Z,16.51
2023-05-06T20:14:38.093Z,16.48
2023-05-06T20:17:04.451Z,16.49
2023-05-06T20:19:32.060Z,16.41
2023-05-06T20:22:00.947Z,16.36
2023-05-06T20:24:29.511Z,16.30
2023-05-06T20:26:59.185Z,16.21
2023-05-06T20:29:26.133Z,16.15
2023-05-06T20:31:52.714Z,16.05
2023-05-06T20:34:19.200Z,15.99
2023-05-06T20:36:46.599Z,15.92
2023-05-06T20:39:13.214Z,15.84
2023-05-06T20:41:41.888Z,15.77
2023-05-06T20:44:08.498Z,15.74
2023-05-06T20:46:34.961Z,15.69
2023-05-06T20:49:01.420Z,15.63
2023-05-06T20:51:28.874Z,15.58
2023-05-06T20:54:01.074Z,15.53
2023-05-06T20:56:28.428Z,15.49
2023-05-06T20:58:55.723Z,15.45
2023-05-06T21:01:23.825Z,15.37
2023-05-06T21:03:50.727Z,15.33
2023-05-06T21:06:18.622Z,15.32
2023-05-06T21:08:46.179Z,15.23
2023-05-06T21:11:15.768Z,15.18
2023-05-06T21:13:42.282Z,15.12
2023-05-06T21:16:08.640Z,15.07
2023-05-06T21:18:35.162Z,15.03
2023-05-06T21:21:01.803Z,14.97
2023-05-06T21:23:28.327Z,14.90
2023-05-06T21:25:54.733Z,14.87
2023-05-06T21:28:23.757Z,14.81
2023-05-06T21:30:52.886Z,14.78
2023-05-06T21:33:19.580Z,14.74
2023-05-06T21:35:45.967Z,14.66
2023-05-06T21:38:14.678Z,14.61
2023-05-06T21:40:43.425Z,14.57
2023-05-06T21:43:09.832Z,14.57
2023-05-06T21:45:36.433Z,14.52
2023-05-06T21:48:02.948Z,14.50
2023-05-06T21:50:29.545Z,14.49
2023-05-06T21:52:56.134Z,14.46
2023-05-06T21:55:27.668Z,14.43
2023-05-06T21:57:59.372Z,14.40
2023-05-06T22:00:25.917Z,14.37
2023-05-06T22:02:53.283Z,14.31
2023-05-06T22:05:19.899Z,14.28
2023-05-06T22:07:46.300Z,14.24
2023-05-06T22:10:13.620Z,14.18
2023-05-06T22:12:40.294Z,14.16
2023-05-06T22:15:07.480Z,14.12
2023-05-06T22:17:34.776Z,14.09
2023-05-06T22:20:06.185Z,14.05
2023-05-06T22:22:32.871Z,13.99
2023-05-06T22:25:02.628Z,13.96
2023-05-06T22:27:31.453Z,13.92
2023-05-06T22:29:57.800Z,13.91
2023-05-06T22:32:24.455Z,13.88
2023-05-06T22:34:53.530Z,13.84
2023-05-06T22:37:24.779Z,13.82
2023-05-06T22:39:52.944Z,13.77
2023-05-06T22:42:24.177Z,13.76
2023-05-06T22:44:50.571Z,13.75
2023-05-06T22:47:17.132Z,13.73
2023-05-06T22:49:46.677Z,13.72
2023-05-06T22:52:13.412Z,13.73
2023-05-06T22:54:42.562Z,13.75
2023-05-06T22:57:09.062Z,13.76
2023-05-06T22:59:35.534Z,13.75
2023-05-06T23:02:03.457Z,13.77
2023-05-06T23:04:29.862Z,13.76
2023-05-06T23:06:57.432Z,13.76
2023-05-06T23:09:23.983Z,13.75
2023-05-06T23:11:50.517Z,13.76
2023-05-06T23:14:19.439Z,13.73
2023-05-06T23:16:45.877Z,13.72
2023-05-06T23:19:12.317Z,13.68
2023-05-06T23:21:41.387Z,13.64
2023-05-06T23:24:12.843Z,13.60
2023-05-06T23:26:39.189Z,13.59
2023-05-06T23:29:05.558Z,13.57
2023-05-06T23:31:32.080Z,13.59
2023-05-06T23:33:58.563Z,13.68
2023-05-06T23:36:24.925Z,13.62
2023-05-06T23:38:56.478Z,13.61
2023-05-06T23:41:23.478Z,13.55
2023-05-06T23:43:49.932Z,13.53
2023-05-06T23:46:18.791Z,13.45
2023-05-06T23:48:45.213Z,13.40
2023-05-06T23:51:11.649Z,13.33
2023-05-06T23:53:38.450Z,13.28
2023-05-06T23:56:05.351Z,13.24
2023-05-06T23:58:36.651Z,13.23
